Time;durP1;ratioP1;P1;durP2;ratioP2;P2;SDS_P1;SDS_P2;PMS_P1;PMS_P2;Temp;Humidity;BMP_temperature;BMP_pressure;BME280_temperature;BME280_humidity;BME280_pressure;Samples;Min_cycle;Max_cycle;Signal;HPM_P1;HPM_P2
2023/04/02 00:00:35;;;;;;;20.20;13.60;;;;;;;10.15;100.00;99566.73;109949;1242;62205;-69
2023/04/02 00:03:24;;;;;;;18.10;14.10;;;;;;;10.18;100.00;99569.71;109682;1246;62901;-69
2023/04/02 00:05:55;;;;;;;22.00;15.10;;;;;;;10.22;100.00;99572.70;109831;1242;59945;-70
2023/04/02 00:08:26;;;;;;;28.30;16.70;;;;;;;10.23;100.00;99571.71;109786;1240;64189;-68
2023/04/02 00:11:00;;;;;;;23.70;16.40;;;;;;;10.19;100.00;99575.78;109888;1242;62770;-69
2023/04/02 00:13:42;;;;;;;29.00;16.80;;;;;;;10.16;100.00;99579.09;109794;1244;57700;-69
2023/04/02 00:16:15;;;;;;;21.80;15.90;;;;;;;10.09;100.00;99579.89;109792;1240;72101;-69
2023/04/02 00:18:54;;;;;;;21.10;15.10;;;;;;;10.11;100.00;99583.11;109792;1245;61440;-69
2023/04/02 00:21:31;;;;;;;24.30;17.00;;;;;;;9.99;100.00;99580.25;109803;1239;69794;-69
2023/04/02 00:24:05;;;;;;;19.70;15.20;;;;;;;10.02;100.00;99580.39;109759;1241;74962;-69
2023/04/02 00:26:43;;;;;;;22.20;16.30;;;;;;;10.05;100.00;99579.06;109582;1245;58017;-70
2023/04/02 00:29:14;;;;;;;19.20;15.30;;;;;;;10.07;100.00;99575.02;109755;1240;61130;-69
2023/04/02 00:31:51;;;;;;;20.00;14.90;;;;;;;10.08;100.00;99575.10;109920;1242;64208;-68
2023/04/02 00:34:38;;;;;;;21.00;15.10;;;;;;;10.08;100.00;99572.02;109718;1245;61865;-68
2023/04/02 00:37:22;;;;;;;22.30;15.80;;;;;;;10.06;100.00;99566.95;109915;1242;59198;-68
2023/04/02 00:40:05;;;;;;;19.50;15.40;;;;;;;10.00;100.00;99563.84;109703;1244;63850;-68
2023/04/02 00:42:37;;;;;;;20.70;15.90;;;;;;;9.91;100.00;99563.89;109803;1242;62031;-67
2023/04/02 00:45:18;;;;;;;18.70;15.70;;;;;;;9.81;100.00;99561.15;109683;1244;60770;-68
2023/04/02 00:47:47;;;;;;;18.70;15.20;;;;;;;9.81;100.00;99559.05;109692;1242;63492;-68
2023/04/02 00:50:34;;;;;;;20.70;16.00;;;;;;;9.77;100.00;99554.55;109676;1245;60648;-68
2023/04/02 00:53:28;;;;;;;21.60;17.50;;;;;;;9.71;100.00;99550.20;109886;1240;69602;-68
2023/04/02 00:55:58;;;;;;;21.50;16.90;;;;;;;9.57;100.00;99546.21;109668;1240;73228;-67
2023/04/02 00:58:35;;;;;;;22.20;17.60;;;;;;;9.58;100.00;99550.16;109710;1245;63399;-68
2023/04/02 01:01:18;;;;;;;21.20;17.40;;;;;;;9.50;100.00;99553.27;109771;1245;61966;-67
2023/04/02 01:03:59;;;;;;;19.00;17.00;;;;;;;9.46;100.00;99554.77;109793;1241;72916;-68
2023/04/02 01:06:38;;;;;;;21.40;18.00;;;;;;;9.48;100.00;99554.83;109553;1241;72724;-68
2023/04/02 01:09:27;;;;;;;18.10;14.70;;;;;;;9.41;100.00;99557.16;109590;1245;70115;-68
2023/04/02 01:12:25;;;;;;;20.30;17.50;;;;;;;9.34;100.00;99557.92;109758;1240;73371;-68
2023/04/02 01:15:20;;;;;;;22.60;17.60;;;;;;;9.36;100.00;99559.89;109744;1242;63873;-72
2023/04/02 01:18:25;;;;;;;22.30;17.40;;;;;;;9.38;100.00;99565.59;109679;1244;61547;-68
2023/04/02 01:21:51;;;;;;;22.80;18.20;;;;;;;9.37;100.00;99567.80;109722;1241;62745;-69
2023/04/02 01:24:23;;;;;;;23.10;16.30;;;;;;;9.38;100.00;99570.33;109771;1241;61628;-69
2023/04/02 01:27:02;;;;;;;19.60;16.80;;;;;;;9.43;100.00;99569.48;109667;1240;68897;-69
2023/04/02 01:29:39;;;;;;;21.50;16.90;;;;;;;9.48;100.00;99570.81;109634;1241;74368;-69
2023/04/02 01:32:15;;;;;;;20.30;17.40;;;;;;;9.52;100.00;99569.95;109701;1241;63656;-70
2023/04/02 01:34:49;;;;;;;21.70;17.60;;;;;;;9.53;100.00;99569.48;109734;1241;58822;-71
2023/04/02 01:37:56;;;;;;;21.60;17.50;;;;;;;9.50;100.00;99570.11;109364;1241;62742;-70
2023/04/02 01:41:21;;;;;;;21.60;17.30;;;;;;;9.46;100.00;99575.50;109597;1241;71354;-69
2023/04/02 01:44:01;;;;;;;23.50;17.90;;;;;;;9.43;100.00;99580.41;109152;1250;60494;-70
2023/04/02 01:46:33;;;;;;;19.40;16.90;;;;;;;9.46;100.00;99583.01;109459;1241;63296;-69
2023/04/02 01:49:15;;;;;;;19.40;17.10;;;;;;;9.49;100.00;99585.80;109354;1247;62069;-70
2023/04/02 01:51:50;;;;;;;21.30;16.70;;;;;;;9.55;100.00;99587.54;109461;1245;58142;-71
2023/04/02 01:54:21;;;;;;;20.90;16.90;;;;;;;9.61;100.00;99591.29;109339;1242;73209;-69
2023/04/02 01:56:50;;;;;;;19.60;17.20;;;;;;;9.58;100.00;99595.48;109366;1241;62314;-69
2023/04/02 01:59:21;;;;;;;21.00;17.40;;;;;;;9.58;100.00;99596.71;109338;1241;60585;-70
2023/04/02 02:02:08;;;;;;;22.20;17.10;;;;;;;9.57;100.00;99599.23;109459;1244;73003;-70
2023/04/02 02:04:39;;;;;;;23.00;17.80;;;;;;;9.52;100.00;99597.60;109539;1244;63361;-69
2023/04/02 02:07:19;;;;;;;21.40;17.60;;;;;;;9.55;100.00;99597.86;109319;1241;57738;-70
2023/04/02 02:09:52;;;;;;;21.10;17.40;;;;;;;9.55;100.00;99597.30;109479;1241;62937;-69
2023/04/02 02:12:21;;;;;;;20.90;17.30;;;;;;;9.55;100.00;99594.70;109503;1241;71472;-73
2023/04/02 02:14:51;;;;;;;21.40;18.40;;;;;;;9.55;100.00;99593.66;109346;1241;60531;-69
2023/04/02 02:17:33;;;;;;;24.40;19.50;;;;;;;9.54;100.00;99593.19;109379;1241;73873;-70
2023/04/02 02:20:08;;;;;;;22.70;18.30;;;;;;;9.53;100.00;99594.69;109470;1244;63560;-70
2023/04/02 02:22:42;;;;;;;24.10;18.80;;;;;;;9.54;100.00;99596.71;109604;1243;57162;-69
2023/04/02 02:25:25;;;;;;;25.60;18.80;;;;;;;9.54;100.00;99593.77;109525;1241;73418;-69
2023/04/02 02:28:28;;;;;;;23.40;18.10;;;;;;;9.47;100.00;99594.89;109504;1245;71831;-69
2023/04/02 02:31:17;;;;;;;24.60;19.10;;;;;;;9.45;100.00;99601.43;109547;1241;69909;-69
2023/04/02 02:33:52;;;;;;;23.30;17.40;;;;;;;9.42;100.00;99604.71;109570;1241;63635;-68
2023/04/02 02:36:32;;;;;;;22.30;18.10;;;;;;;9.43;100.00;99610.66;109568;1244;57061;-70
2023/04/02 02:39:20;;;;;;;24.00;18.90;;;;;;;9.42;100.00;99615.98;109428;1241;61130;-69
2023/04/02 02:41:55;;;;;;;22.10;18.60;;;;;;;9.42;100.00;99618.58;109539;1241;63840;-69
2023/04/02 02:44:34;;;;;;;24.00;18.80;;;;;;;9.36;100.00;99614.40;109424;1241;69409;-69
2023/04/02 02:47:17;;;;;;;28.20;19.50;;;;;;;9.32;100.00;99612.15;109515;1241;69350;-69
2023/04/02 02:49:53;;;;;;;25.10;19.20;;;;;;;9.30;100.00;99614.39;109708;1240;62651;-68
2023/04/02 02:52:27;;;;;;;25.70;19.00;;;;;;;9.33;100.00;99616.05;109528;1242;57732;-68
2023/04/02 02:55:17;;;;;;;28.60;21.20;;;;;;;9.37;100.00;99618.11;109522;1241;61261;-68
2023/04/02 02:58:33;;;;;;;27.50;21.10;;;;;;;9.37;100.00;99620.23;109516;1241;74372;-70
2023/04/02 03:01:17;;;;;;;27.10;20.20;;;;;;;9.31;100.00;99621.40;109694;1241;61981;-71
2023/04/02 03:03:48;;;;;;;27.20;20.70;;;;;;;9.34;100.00;99625.03;109552;1240;69707;-69
2023/04/02 03:06:19;;;;;;;26.80;19.10;;;;;;;9.34;100.00;99627.80;109533;1241;73991;-68
2023/04/02 03:09:21;;;;;;;25.10;19.20;;;;;;;9.34;100.00;99628.34;109680;1242;62550;-69
2023/04/02 03:12:30;;;;;;;25.60;19.50;;;;;;;9.29;100.00;99630.27;109735;1241;57685;-68
2023/04/02 03:15:34;;;;;;;25.60;19.10;;;;;;;9.33;100.00;99632.73;109747;1241;63953;-69
2023/04/02 03:18:16;;;;;;;24.50;18.40;;;;;;;9.36;100.00;99632.29;109843;1241;60871;-70
2023/04/02 03:20:55;;;;;;;23.00;17.40;;;;;;;9.33;100.00;99632.88;109622;1241;69775;-69
2023/04/02 03:23:44;;;;;;;21.90;16.90;;;;;;;9.35;100.00;99632.08;109643;1241;63105;-69
2023/04/02 03:26:47;;;;;;;23.30;17.60;;;;;;;9.36;100.00;99638.55;109715;1241;62237;-69
2023/04/02 03:29:28;;;;;;;21.60;16.70;;;;;;;9.34;100.00;99636.29;109733;1241;57721;-69
2023/04/02 03:32:33;;;;;;;20.20;15.40;;;;;;;9.40;100.00;99634.61;109624;1241;73597;-69
2023/04/02 03:35:31;;;;;;;18.60;15.30;;;;;;;9.43;100.00;99632.41;109650;1241;73327;-70
2023/04/02 03:38:15;;;;;;;21.30;15.70;;;;;;;9.45;100.00;99628.05;109701;1241;71238;-70
2023/04/02 03:41:15;;;;;;;18.30;14.50;;;;;;;9.41;100.00;99632.74;109588;1241;63189;-69
2023/04/02 03:43:53;;;;;;;17.80;14.20;;;;;;;9.40;100.00;99633.88;109380;1241;61285;-70
2023/04/02 03:46:34;;;;;;;16.50;13.40;;;;;;;9.38;100.00;99637.54;109659;1241;60739;-68
2023/04/02 03:49:24;;;;;;;17.50;12.60;;;;;;;9.36;100.00;99638.94;109748;1241;73424;-69
2023/04/02 03:52:10;;;;;;;14.40;11.80;;;;;;;9.37;100.00;99638.84;109651;1240;70272;-68
2023/04/02 03:54:41;;;;;;;18.20;14.00;;;;;;;9.39;100.00;99641.98;109714;1241;70495;-68
2023/04/02 03:57:39;;;;;;;16.00;11.90;;;;;;;9.38;100.00;99643.58;109633;1241;63715;-69
2023/04/02 04:00:22;;;;;;;21.80;17.00;;;;;;;9.40;100.00;99646.25;109568;1244;57450;-69
2023/04/02 04:03:03;;;;;;;;;;;;;;;9.38;100.00;99649.17;109635;1241;57708;-68
2023/04/02 04:05:47;;;;;;;22.80;16.30;;;;;;;9.36;100.00;99650.06;109606;1240;73401;-68
2023/04/02 04:08:19;;;;;;;;;;;;;;;9.38;100.00;99655.60;109721;1241;73058;-69
2023/04/02 04:11:00;;;;;;;20.30;15.40;;;;;;;9.34;100.00;99659.27;109778;1241;69543;-67
2023/04/02 04:14:08;;;;;;;18.90;14.80;;;;;;;9.33;100.00;99662.45;109709;1240;63089;-68
2023/04/02 04:17:14;;;;;;;22.10;15.40;;;;;;;9.31;100.00;99663.27;109729;1244;57651;-70
2023/04/02 04:19:50;;;;;;;22.20;16.00;;;;;;;9.29;100.00;99662.73;109781;1240;61395;-69
2023/04/02 04:22:32;;;;;;;21.90;17.10;;;;;;;9.26;100.00;99666.64;109834;1240;73598;-68
2023/04/02 04:25:32;;;;;;;20.20;16.00;;;;;;;9.27;100.00;99667.84;109576;1241;70817;-68
2023/04/02 04:28:28;;;;;;;22.20;16.80;;;;;;;9.26;100.00;99672.38;109654;1240;59557;-67
2023/04/02 04:31:08;;;;;;;23.30;16.00;;;;;;;9.29;100.00;99667.25;109670;1241;73482;-68
2023/04/02 04:33:46;;;;;;;24.10;17.20;;;;;;;9.27;100.00;99671.77;109630;1241;63240;-68
2023/04/02 04:36:28;;;;;;;21.40;15.70;;;;;;;9.29;100.00;99674.41;109669;1240;57072;-70
2023/04/02 04:39:13;;;;;;;21.70;15.20;;;;;;;9.26;100.00;99676.19;109648;1241;63144;-68
2023/04/02 04:41:47;;;;;;;18.40;14.00;;;;;;;9.27;100.00;99681.54;109650;1244;72143;-69
2023/04/02 04:44:47;;;;;;;18.50;13.80;;;;;;;9.28;100.00;99685.10;109832;1241;70001;-68
2023/04/02 04:48:00;;;;;;;17.10;13.90;;;;;;;9.24;100.00;99686.08;109658;1241;74152;-68
2023/04/02 04:50:44;;;;;;;17.70;14.00;;;;;;;9.31;100.00;99691.80;109729;1242;57512;-68
2023/04/02 04:53:19;;;;;;;18.40;13.70;;;;;;;9.38;100.00;99695.42;109727;1241;57706;-68
2023/04/02 04:55:57;;;;;;;17.00;14.00;;;;;;;9.37;100.00;99693.41;109532;1240;64434;-68
2023/04/02 04:58:52;;;;;;;18.00;13.50;;;;;;;9.38;100.00;99696.40;109422;1245;61593;-68
2023/04/02 05:02:05;;;;;;;16.00;12.90;;;;;;;9.42;100.00;99697.66;109563;1241;69697;-68
2023/04/02 05:04:41;;;;;;;16.40;12.50;;;;;;;9.46;100.00;99702.52;109663;1244;73454;-69
2023/04/02 05:07:22;;;;;;;15.30;11.90;;;;;;;9.47;100.00;99706.83;109771;1243;57104;-69
2023/04/02 05:10:17;;;;;;;14.60;11.30;;;;;;;9.46;100.00;99708.10;109775;1242;57740;-69
2023/04/02 05:13:20;;;;;;;13.60;11.10;;;;;;;9.48;100.00;99708.27;109693;1244;62157;-68
2023/04/02 05:16:00;;;;;;;15.70;12.20;;;;;;;9.44;100.00;99710.03;109608;1241;72205;-70
2023/04/02 05:19:05;;;;;;;16.20;12.10;;;;;;;9.39;100.00;99711.11;109886;1240;59422;-71
2023/04/02 05:22:17;;;;;;;14.10;11.90;;;;;;;9.43;100.00;99714.75;109515;1241;74384;-70
2023/04/02 05:25:14;;;;;;;16.20;13.00;;;;;;;9.40;100.00;99711.71;109810;1242;57767;-70
2023/04/02 05:27:59;;;;;;;16.30;12.40;;;;;;;9.39;100.00;99714.80;109864;1242;57708;-69
2023/04/02 05:30:28;;;;;;;15.90;13.00;;;;;;;9.27;100.00;99719.25;109743;1240;73548;-68
2023/04/02 05:33:16;;;;;;;15.80;12.30;;;;;;;9.31;100.00;99721.00;109698;1241;72244;-69
2023/04/02 05:35:50;;;;;;;20.10;15.00;;;;;;;9.27;100.00;99719.61;109586;1241;69540;-68
2023/04/02 05:38:24;;;;;;;18.40;14.40;;;;;;;9.17;100.00;99721.81;109719;1244;63604;-67
2023/04/02 05:41:25;;;;;;;18.90;15.00;;;;;;;9.17;100.00;99722.69;109651;1240;57050;-69
2023/04/02 05:44:25;;;;;;;19.90;14.30;;;;;;;9.17;100.00;99720.55;109588;1240;61253;-68
2023/04/02 05:47:13;;;;;;;19.80;15.10;;;;;;;9.18;100.00;99718.23;109589;1240;63697;-69
2023/04/02 05:50:09;;;;;;;19.30;15.20;;;;;;;9.22;100.00;99723.14;109540;1240;61703;-68
2023/04/02 05:52:56;;;;;;;20.30;16.40;;;;;;;9.17;100.00;99729.24;109537;1245;59985;-68
2023/04/02 05:55:37;;;;;;;24.90;16.90;;;;;;;9.22;100.00;99730.07;109589;1245;63960;-68
2023/04/02 05:58:20;;;;;;;22.10;16.40;;;;;;;9.17;100.00;99733.58;109735;1242;57685;-68
2023/04/02 06:01:36;;;;;;;28.60;17.90;;;;;;;9.23;100.00;99736.09;109656;1241;61201;-68
2023/04/02 06:04:27;;;;;;;23.50;17.70;;;;;;;9.17;100.00;99740.17;109652;1241;73368;-68
2023/04/02 06:07:07;;;;;;;26.10;18.80;;;;;;;9.11;100.00;99733.20;109773;1241;62764;-68
2023/04/02 06:09:49;;;;;;;25.20;18.50;;;;;;;9.17;100.00;99743.05;109677;1241;69897;-70
2023/04/02 06:12:44;;;;;;;27.20;19.30;;;;;;;9.20;100.00;99747.21;109667;1240;64897;-66
2023/04/02 06:15:22;;;;;;;26.90;18.20;;;;;;;9.20;100.00;99748.25;109678;1244;57759;-69
2023/04/02 06:18:07;;;;;;;24.40;18.00;;;;;;;9.22;100.00;99751.05;109684;1244;57749;-70
2023/04/02 06:20:40;;;;;;;23.10;16.60;;;;;;;9.28;100.00;99753.71;109710;1241;72644;-70
2023/04/02 06:23:11;;;;;;;23.00;16.70;;;;;;;9.29;100.00;99755.40;109664;1241;72605;-72
2023/04/02 06:25:54;;;;;;;23.50;16.60;;;;;;;9.27;100.00;99757.60;109603;1241;70430;-70
2023/04/02 06:28:40;;;;;;;;;;;;;;;9.22;100.00;99765.54;109556;1245;62815;-70
2023/04/02 06:31:35;;;;;;;24.40;17.20;;;;;;;9.21;100.00;99765.92;109653;1241;57141;-70
2023/04/02 06:34:15;;;;;;;25.80;17.10;;;;;;;9.25;100.00;99765.11;109662;1241;61219;-72
2023/04/02 06:36:53;;;;;;;31.90;18.80;;;;;;;9.20;100.00;99768.25;109534;1245;71568;-75
2023/04/02 06:39:26;;;;;;;29.80;18.70;;;;;;;9.20;100.00;99765.70;109606;1240;63055;-69
2023/04/02 06:42:12;;;;;;;24.40;16.40;;;;;;;9.19;100.00;99760.32;109441;1241;69644;-72
2023/04/02 06:44:59;;;;;;;30.30;18.10;;;;;;;9.21;100.00;99763.49;109813;1242;63658;-70
2023/04/02 06:47:42;;;;;;;24.90;15.70;;;;;;;9.11;100.00;99756.83;109652;1241;62020;-72
2023/04/02 06:50:42;;;;;;;23.70;16.50;;;;;;;9.23;100.00;99766.48;109648;1241;57205;-72
2023/04/02 06:53:29;;;;;;;23.00;14.10;;;;;;;9.26;100.00;99774.73;109807;1241;73022;-71
2023/04/02 06:56:22;;;;;;;22.10;15.50;;;;;;;9.23;100.00;99777.39;109662;1241;72507;-72
2023/04/02 06:58:52;;;;;;;23.80;16.10;;;;;;;9.22;100.00;99780.02;109804;1241;70263;-71
2023/04/02 07:01:28;;;;;;;24.00;15.70;;;;;;;9.17;100.00;99784.16;109577;1244;63058;-70
2023/04/02 07:03:58;;;;;;;25.20;16.20;;;;;;;9.15;100.00;99787.98;109586;1245;57699;-71
2023/04/02 07:06:32;;;;;;;26.20;15.90;;;;;;;9.19;100.00;99790.08;109649;1245;57395;-71
2023/04/02 07:09:03;;;;;;;31.50;18.30;;;;;;;9.20;100.00;99798.51;109551;1241;72727;-71
2023/04/02 07:11:34;;;;;;;27.60;16.80;;;;;;;9.16;100.00;99802.48;109562;1244;62300;-74
2023/04/02 07:14:05;;;;;;;28.20;18.00;;;;;;;9.16;100.00;99807.70;109548;1243;59469;-71
2023/04/02 07:16:35;;;;;;;25.90;17.10;;;;;;;9.21;100.00;99807.84;109369;1242;73884;-72
2023/04/02 07:19:04;;;;;;;29.40;19.60;;;;;;;9.18;100.00;99807.72;109440;1244;57772;-72
2023/04/02 07:21:37;;;;;;;26.30;18.00;;;;;;;9.10;100.00;99815.29;109554;1240;59374;-70
2023/04/02 07:24:07;;;;;;;32.20;18.00;;;;;;;9.18;100.00;99811.02;109587;1241;74275;-70
2023/04/02 07:26:36;;;;;;;28.80;18.40;;;;;;;9.17;100.00;99817.19;109777;1240;72549;-67
2023/04/02 07:29:08;;;;;;;33.00;18.70;;;;;;;9.15;100.00;99817.19;109607;1241;60236;-69
2023/04/02 07:31:38;;;;;;;57.50;27.10;;;;;;;9.15;100.00;99823.56;109584;1242;73780;-68
2023/04/02 07:34:08;;;;;;;60.90;30.00;;;;;;;9.19;100.00;99824.48;109419;1245;62768;-69
2023/04/02 07:36:37;;;;;;;53.00;29.00;;;;;;;9.19;100.00;99824.98;109522;1240;57721;-68
2023/04/02 07:39:06;;;;;;;35.10;21.30;;;;;;;9.22;100.00;99826.08;109598;1241;73635;-67
2023/04/02 07:41:51;;;;;;;41.80;23.50;;;;;;;9.28;100.00;99829.67;109636;1243;71726;-68
2023/04/02 07:44:19;;;;;;;38.90;22.90;;;;;;;9.33;100.00;99828.58;109634;1241;71077;-69
2023/04/02 07:46:48;;;;;;;45.50;25.50;;;;;;;9.35;100.00;99833.60;109692;1243;62949;-69
2023/04/02 07:49:17;;;;;;;42.70;24.50;;;;;;;9.39;100.00;99835.58;109807;1241;57160;-68
2023/04/02 07:51:46;;;;;;;40.90;24.10;;;;;;;9.38;100.00;99839.43;109700;1241;57164;-69
2023/04/02 07:54:15;;;;;;;44.50;24.80;;;;;;;9.37;100.00;99838.66;109820;1241;73916;-69
2023/04/02 07:56:44;;;;;;;44.90;25.30;;;;;;;9.36;100.00;99838.03;109823;1240;72087;-68
2023/04/02 07:59:12;;;;;;;48.10;27.20;;;;;;;9.39;100.00;99841.48;109589;1241;71028;-68
2023/04/02 08:01:41;;;;;;;50.30;27.20;;;;;;;9.47;100.00;99845.67;109717;1242;63758;-69
2023/04/02 08:04:21;;;;;;;40.10;23.70;;;;;;;9.49;100.00;99849.15;109826;1241;62961;-69
2023/04/02 08:06:51;;;;;;;41.60;22.80;;;;;;;9.52;100.00;99851.65;109654;1241;57245;-70
2023/04/02 08:09:20;;;;;;;44.80;25.50;;;;;;;9.53;100.00;99846.52;109860;1241;62934;-70
2023/04/02 08:11:49;;;;;;;43.00;25.40;;;;;;;9.49;100.00;99845.83;109827;1241;60995;-71
2023/04/02 08:14:18;;;;;;;42.50;25.40;;;;;;;9.55;100.00;99839.59;109904;1241;59974;-69
2023/04/02 08:16:52;;;;;;;40.40;23.70;;;;;;;9.58;100.00;99842.19;109806;1241;65734;-69
2023/04/02 08:19:21;;;;;;;42.00;24.70;;;;;;;9.64;100.00;99848.11;109716;1242;57735;-68
2023/04/02 08:21:50;;;;;;;40.30;24.00;;;;;;;9.65;100.00;99850.40;109819;1240;57278;-68
2023/04/02 08:24:20;;;;;;;43.70;25.60;;;;;;;9.71;100.00;99852.59;109818;1240;62918;-68
2023/04/02 08:26:50;;;;;;;42.10;23.20;;;;;;;9.64;100.00;99851.90;109633;1241;61721;-69
2023/04/02 08:29:20;;;;;;;39.40;23.90;;;;;;;9.72;100.00;99854.52;109655;1241;69736;-70
2023/04/02 08:31:49;;;;;;;40.50;24.10;;;;;;;9.73;100.00;99850.81;109678;1241;62842;-71
2023/04/02 08:34:18;;;;;;;36.80;23.60;;;;;;;9.80;100.00;99851.27;109733;1241;62912;-71
2023/04/02 08:36:46;;;;;;;37.50;23.50;;;;;;;9.81;100.00;99856.21;109821;1241;61692;-69
2023/04/02 08:39:15;;;;;;;37.40;22.40;;;;;;;9.96;100.00;99853.66;109663;1240;63686;-68
2023/04/02 08:42:00;;;;;;;38.30;24.30;;;;;;;9.99;100.00;99851.63;109881;1241;60940;-68
2023/04/02 08:44:49;;;;;;;36.20;22.20;;;;;;;9.99;100.00;99847.11;109722;1241;69744;-69
2023/04/02 08:47:20;;;;;;;34.90;22.60;;;;;;;10.05;100.00;99854.63;109623;1241;74518;-69
2023/04/02 08:50:01;;;;;;;36.50;22.80;;;;;;;10.13;100.00;99859.34;109823;1240;62546;-69
2023/04/02 08:52:35;;;;;;;32.50;22.60;;;;;;;10.16;100.00;99857.84;109679;1241;57735;-70
2023/04/02 08:55:31;;;;;;;31.40;22.30;;;;;;;10.23;100.00;99853.77;109685;1240;62876;-70
2023/04/02 08:58:43;;;;;;;31.70;21.00;;;;;;;10.21;100.00;99853.77;109634;1240;60959;-68
2023/04/02 09:01:48;;;;;;;33.00;21.30;;;;;;;10.33;100.00;99859.41;109719;1240;69860;-70
2023/04/02 09:04:21;;;;;;;29.80;20.00;;;;;;;10.48;100.00;99860.23;109461;1240;74574;-68
2023/04/02 09:06:54;;;;;;;31.50;20.90;;;;;;;10.54;100.00;99864.17;109621;1244;57736;-70
2023/04/02 09:09:24;;;;;;;31.10;21.00;;;;;;;10.53;100.00;99862.71;109843;1240;61244;-68
2023/04/02 09:11:59;;;;;;;43.10;19.70;;;;;;;10.74;100.00;99868.94;109631;1241;74709;-69
2023/04/02 09:14:53;;;;;;;28.20;17.90;;;;;;;10.83;100.00;99869.88;109734;1241;61322;-70
2023/04/02 09:17:25;;;;;;;29.30;18.70;;;;;;;10.76;100.00;99871.89;109847;1240;59286;-70
2023/04/02 09:20:18;;;;;;;31.50;19.50;;;;;;;10.80;100.00;99876.12;109718;1242;73810;-69
2023/04/02 09:22:50;;;;;;;26.90;18.60;;;;;;;10.98;100.00;99876.98;109820;1241;62348;-68
2023/04/02 09:25:33;;;;;;;27.00;19.20;;;;;;;11.01;100.00;99876.71;109720;1241;61990;-65
2023/04/02 09:28:03;;;;;;;27.60;18.30;;;;;;;11.06;100.00;99880.95;109662;1241;74920;-69
2023/04/02 09:31:33;;;;;;;24.40;17.30;;;;;;;10.95;100.00;99880.87;109723;1241;61390;-67
2023/04/02 09:34:31;;;;;;;25.90;17.30;;;;;;;11.23;100.00;99883.66;109614;1241;71185;-68
2023/04/02 09:37:15;;;;;;;24.70;16.60;;;;;;;11.23;100.00;99878.98;109617;1240;62792;-68
2023/04/02 09:39:44;;;;;;;22.20;15.70;;;;;;;11.26;100.00;99885.30;109606;1242;62824;-69
2023/04/02 09:42:32;;;;;;;22.70;16.10;;;;;;;11.28;100.00;99884.66;109504;1241;61178;-68
2023/04/02 09:45:22;;;;;;;22.00;15.30;;;;;;;11.23;100.00;99888.05;109619;1241;65576;-70
2023/04/02 09:47:53;;;;;;;21.40;15.10;;;;;;;11.31;100.00;99893.96;109691;1241;72225;-69
2023/04/02 09:50:26;;;;;;;21.20;14.70;;;;;;;11.35;100.00;99893.62;109544;1240;71136;-70
2023/04/02 09:52:55;;;;;;;17.70;13.50;;;;;;;11.35;100.00;99898.11;109606;1241;73597;-71
2023/04/02 09:55:29;;;;;;;20.20;14.50;;;;;;;11.37;100.00;99897.23;109516;1241;63951;-69
2023/04/02 09:58:16;;;;;;;21.00;14.80;;;;;;;11.43;100.00;99898.14;109500;1241;57764;-68
2023/04/02 10:00:53;;;;;;;21.80;14.70;;;;;;;11.43;100.00;99897.79;109399;1241;75016;-68
2023/04/02 10:03:31;;;;;;;19.00;14.00;;;;;;;11.53;100.00;99895.64;109608;1241;72839;-65
2023/04/02 10:06:13;;;;;;;20.50;14.90;;;;;;;11.63;99.44;99894.96;109640;1240;59997;-66
2023/04/02 10:08:44;;;;;;;20.10;14.60;;;;;;;11.64;99.60;99894.83;109654;1242;73998;-66
2023/04/02 10:11:21;;;;;;;18.20;13.10;;;;;;;11.62;98.91;99897.80;109526;1241;63311;-66
2023/04/02 10:14:08;;;;;;;20.60;15.10;;;;;;;11.67;99.04;99898.21;109587;1241;60740;-67
2023/04/02 10:16:50;;;;;;;22.20;15.70;;;;;;;11.69;98.68;99901.88;109723;1240;64329;-66
2023/04/02 10:19:43;;;;;;;19.60;13.70;;;;;;;11.80;98.57;99902.86;109597;1241;61444;-68
2023/04/02 10:22:18;;;;;;;18.00;13.20;;;;;;;11.91;97.89;99904.27;109585;1241;70511;-67
2023/04/02 10:24:48;;;;;;;16.50;12.70;;;;;;;11.96;96.75;99899.16;109548;1242;74345;-67
2023/04/02 10:27:28;;;;;;;17.90;13.30;;;;;;;12.06;96.61;99900.35;109536;1241;62850;-70
2023/04/02 10:30:49;;;;;;;17.20;12.80;;;;;;;12.12;96.17;99900.59;109616;1241;57936;-68
2023/04/02 10:33:28;;;;;;;18.40;13.30;;;;;;;12.24;95.68;99898.88;109693;1240;74372;-69
2023/04/02 10:36:20;;;;;;;18.20;12.70;;;;;;;12.27;94.85;99896.43;109498;1239;71804;-69
2023/04/02 10:39:12;;;;;;;16.40;12.10;;;;;;;12.33;93.95;99893.83;109673;1239;70563;-69
2023/04/02 10:42:18;;;;;;;14.80;11.40;;;;;;;12.45;92.70;99891.09;109479;1241;62254;-68
2023/04/02 10:45:05;;;;;;;14.60;10.50;;;;;;;12.52;91.35;99892.55;109444;1241;58288;-68
2023/04/02 10:47:58;;;;;;;15.10;11.30;;;;;;;12.44;91.44;99895.89;109669;1240;60347;-68
2023/04/02 10:50:40;;;;;;;39.70;31.40;;;;;;;12.68;91.44;99895.60;109650;1239;75656;-68
2023/04/02 10:53:22;;;;;;;17.20;13.90;;;;;;;12.75;90.72;99904.21;109533;1241;71809;-69
2023/04/02 10:56:02;;;;;;;14.00;11.30;;;;;;;12.94;90.82;99902.23;109568;1241;70813;-67
2023/04/02 10:58:37;;;;;;;14.50;11.00;;;;;;;13.22;88.91;99905.32;109444;1241;73637;-68
2023/04/02 11:01:15;;;;;;;13.10;10.20;;;;;;;13.35;88.44;99903.63;109593;1241;62827;-68
2023/04/02 11:03:54;;;;;;;12.00;10.70;;;;;;;13.37;88.25;99902.86;109519;1240;58383;-69
2023/04/02 11:06:31;;;;;;;13.90;10.20;;;;;;;13.44;86.98;99903.21;109636;1240;73594;-70
2023/04/02 11:09:05;;;;;;;12.50;10.20;;;;;;;13.55;86.89;99903.93;109451;1241;62456;-69
2023/04/02 11:11:40;;;;;;;12.40;10.60;;;;;;;13.65;86.28;99904.35;109482;1241;69655;-69
2023/04/02 11:14:23;;;;;;;12.40;10.10;;;;;;;13.74;87.16;99907.83;109707;1242;62893;-70
2023/04/02 11:16:57;;;;;;;12.00;9.80;;;;;;;13.95;85.38;99909.41;109668;1241;62061;-72
2023/04/02 11:19:33;;;;;;;13.80;9.50;;;;;;;14.14;85.05;99909.29;109639;1241;58261;-69
2023/04/02 11:22:24;;;;;;;14.10;11.40;;;;;;;14.22;84.39;99903.93;109610;1242;62950;-70
2023/04/02 11:24:56;;;;;;;16.40;12.90;;;;;;;14.25;85.50;99908.90;109643;1241;71511;-68
2023/04/02 11:27:32;;;;;;;16.50;12.70;;;;;;;14.43;86.94;99910.26;109172;1239;549081;-67
2023/04/02 11:30:16;;;;;;;19.00;14.10;;;;;;;14.57;87.18;99912.28;109680;1241;62917;-69
2023/04/02 11:32:50;;;;;;;15.70;11.90;;;;;;;14.78;86.02;99914.04;109617;1241;58344;-67
2023/04/02 11:35:31;;;;;;;15.60;11.80;;;;;;;14.81;85.27;99913.06;109405;1241;58211;-68
2023/04/02 11:38:21;;;;;;;12.70;11.10;;;;;;;14.77;83.59;99914.63;109496;1241;63718;-68
2023/04/02 11:41:00;;;;;;;15.80;12.30;;;;;;;14.88;82.67;99915.64;109630;1240;72140;-66
2023/04/02 11:43:32;;;;;;;17.20;11.70;;;;;;;15.02;81.89;99916.77;109716;1240;60407;-70
2023/04/02 11:46:05;;;;;;;16.60;12.40;;;;;;;15.13;81.50;99917.77;109919;1239;62468;-68
2023/04/02 11:48:35;;;;;;;;;;;;;;;14.82;82.06;99920.23;109884;1241;59924;-69
2023/04/02 11:51:19;;;;;;;15.80;12.20;;;;;;;14.57;81.93;99918.02;109831;1241;57723;-70
2023/04/02 11:53:52;;;;;;;15.60;11.50;;;;;;;14.15;84.31;99920.72;109841;1239;73677;-69
2023/04/02 11:56:51;;;;;;;13.50;11.30;;;;;;;14.02;84.70;99928.14;109644;1244;62051;-68
2023/04/02 11:59:45;;;;;;;14.00;10.90;;;;;;;13.98;84.21;99927.55;109800;1241;68596;-70
2023/04/02 12:02:32;;;;;;;16.40;12.50;;;;;;;13.76;85.53;99930.86;109590;1241;62980;-68
2023/04/02 12:05:16;;;;;;;21.30;12.50;;;;;;;13.83;86.16;99931.13;109742;1241;57851;-69
2023/04/02 12:08:53;;;;;;;20.10;12.40;;;;;;;13.76;86.51;99929.13;109625;1241;58010;-70
2023/04/02 12:11:35;;;;;;;14.50;11.80;;;;;;;13.85;86.38;99924.70;109445;1244;73536;-69
2023/04/02 12:14:41;;;;;;;15.70;12.00;;;;;;;13.84;85.82;99925.19;109395;1244;72315;-69
2023/04/02 12:17:42;;;;;;;14.00;10.90;;;;;;;13.71;85.85;99928.65;109741;1240;60625;-69